CheckWX is a tool to help pilots better visualize weather data.  It is not intended as a substitute for an official pre-flight weather briefing.

18:59:17 UTC

KNKX METAR
Miramar MCAS Airport
San Diego, California, USA
Current

1 hour ago

KNKX 261755Z 31004KT 10SM FEW030 OVC250 18/12 A3005 RMK AO2 SLP172 T01830122 10183 20106 51013 $
Observed
Mar-26 @ 17:55 UTC
Wind
  • 310° at 4 KTS
Visibility
10 SM
Flight Rules
VFR
Cloud Levels
  • Few at 3,000' AGL
  • Overcast at 25,000' AGL
Temperature
18°C / 64°F
Dewpoint
12°C / 54°F
Humidity
68%
Altimeter
30.05" Hg
Pressure
1017.2 hPa
Previous

2 hours ago

KNKX 261655Z 35004KT 10SM SCT003 SCT030 OVC250 17/12 A3005 RMK AO2 SLP171 T01720122 $
Observed
Mar-26 @ 16:55 UTC
Wind
  • 350° at 4 KTS
Visibility
10 SM
Flight Rules
VFR
Cloud Levels
  • Scattered at 300' AGL
  • Scattered at 3,000' AGL
  • Overcast at 25,000' AGL
Temperature
17°C / 63°F
Dewpoint
12°C / 54°F
Humidity
73%
Altimeter
30.05" Hg
Pressure
1017.1 hPa
Previous

3 hours ago

KNKX 261623Z 32005KT 10SM SCT003 SCT030 16/12 A3004 RMK AO2 T01610122 $
Observed
Mar-26 @ 16:23 UTC
Wind
  • 320° at 5 KTS
Visibility
10 SM
Flight Rules
VFR
Cloud Levels
  • Scattered at 300' AGL
  • Scattered at 3,000' AGL
Temperature
16°C / 61°F
Dewpoint
12°C / 54°F
Humidity
77%
Altimeter
30.04" Hg
Pressure
1017.32 hPa